sensor_id;sensor_type;location;lat;lon;timestamp;pressure;altitude;pressure_sealevel;temperature;humidity
61113;BME280;47184;57.998;56.184;2023-04-26T00:01:35;100342.66;;;15.06;36.17
61113;BME280;47184;57.998;56.184;2023-04-26T00:04:01;100334.69;;;15.06;36.09
61113;BME280;47184;57.998;56.184;2023-04-26T00:06:28;100330.81;;;14.94;36.65
61113;BME280;47184;57.998;56.184;2023-04-26T00:08:54;100332.41;;;15.03;36.36
61113;BME280;47184;57.998;56.184;2023-04-26T00:11:20;100329.91;;;15.01;36.23
61113;BME280;47184;57.998;56.184;2023-04-26T00:13:46;100310.28;;;14.88;36.77
61113;BME280;47184;57.998;56.184;2023-04-26T00:16:12;100307.16;;;14.84;36.42
61113;BME280;47184;57.998;56.184;2023-04-26T00:18:39;100321.66;;;14.96;36.56
61113;BME280;47184;57.998;56.184;2023-04-26T00:21:05;100320.84;;;14.96;36.64
61113;BME280;47184;57.998;56.184;2023-04-26T00:23:31;100316.00;;;14.99;36.81
61113;BME280;47184;57.998;56.184;2023-04-26T00:25:57;100314.44;;;15.05;36.69
61113;BME280;47184;57.998;56.184;2023-04-26T00:28:23;100313.41;;;15.06;36.63
61113;BME280;47184;57.998;56.184;2023-04-26T00:30:49;100305.72;;;15.11;36.37
61113;BME280;47184;57.998;56.184;2023-04-26T00:33:16;100305.91;;;15.09;36.57
61113;BME280;47184;57.998;56.184;2023-04-26T00:35:42;100312.91;;;15.10;36.40
61113;BME280;47184;57.998;56.184;2023-04-26T00:38:09;100298.94;;;15.08;37.00
61113;BME280;47184;57.998;56.184;2023-04-26T00:40:35;100287.91;;;14.97;36.75
61113;BME280;47184;57.998;56.184;2023-04-26T00:43:02;100324.63;;;15.16;36.57
61113;BME280;47184;57.998;56.184;2023-04-26T00:45:28;100309.38;;;15.10;36.64
61113;BME280;47184;57.998;56.184;2023-04-26T00:47:55;100319.38;;;15.08;36.73
61113;BME280;47184;57.998;56.184;2023-04-26T00:50:21;100313.41;;;15.06;36.28
61113;BME280;47184;57.998;56.184;2023-04-26T00:52:48;100301.88;;;14.99;35.16
61113;BME280;47184;57.998;56.184;2023-04-26T00:55:15;100293.50;;;15.02;34.61
61113;BME280;47184;57.998;56.184;2023-04-26T00:57:43;100298.47;;;15.05;34.69
61113;BME280;47184;57.998;56.184;2023-04-26T01:00:10;100296.28;;;15.08;34.06
61113;BME280;47184;57.998;56.184;2023-04-26T01:02:37;100283.81;;;15.09;34.46
61113;BME280;47184;57.998;56.184;2023-04-26T01:05:04;100280.41;;;15.15;34.57
61113;BME280;47184;57.998;56.184;2023-04-26T01:07:30;100274.00;;;15.24;34.49
61113;BME280;47184;57.998;56.184;2023-04-26T01:10:04;100277.13;;;15.28;34.97
61113;BME280;47184;57.998;56.184;2023-04-26T01:12:32;100262.34;;;15.25;35.21
61113;BME280;47184;57.998;56.184;2023-04-26T01:15:02;100275.44;;;15.42;35.40
61113;BME280;47184;57.998;56.184;2023-04-26T01:17:32;100248.47;;;15.30;35.23
61113;BME280;47184;57.998;56.184;2023-04-26T01:19:59;100253.72;;;15.23;35.55
61113;BME280;47184;57.998;56.184;2023-04-26T01:22:26;100270.22;;;15.33;35.61
61113;BME280;47184;57.998;56.184;2023-04-26T01:24:54;100276.19;;;15.21;35.79
61113;BME280;47184;57.998;56.184;2023-04-26T01:27:21;100273.88;;;15.18;36.29
61113;BME280;47184;57.998;56.184;2023-04-26T01:29:47;100273.72;;;15.19;35.94
61113;BME280;47184;57.998;56.184;2023-04-26T01:32:13;100226.22;;;14.86;36.35
61113;BME280;47184;57.998;56.184;2023-04-26T01:34:39;100266.19;;;15.08;36.13
61113;BME280;47184;57.998;56.184;2023-04-26T01:37:05;100258.22;;;15.08;36.44
61113;BME280;47184;57.998;56.184;2023-04-26T01:39:33;100259.84;;;15.09;36.69
61113;BME280;47184;57.998;56.184;2023-04-26T01:41:59;100252.63;;;15.03;36.92
61113;BME280;47184;57.998;56.184;2023-04-26T01:44:25;100282.06;;;15.01;37.06
61113;BME280;47184;57.998;56.184;2023-04-26T01:46:51;100286.72;;;14.84;36.42
61113;BME280;47184;57.998;56.184;2023-04-26T01:49:17;100296.28;;;14.56;37.43
61113;BME280;47184;57.998;56.184;2023-04-26T01:51:46;100296.56;;;14.15;37.81
61113;BME280;47184;57.998;56.184;2023-04-26T01:54:12;100295.25;;;13.88;38.79
61113;BME280;47184;57.998;56.184;2023-04-26T01:56:38;100296.81;;;13.74;39.05
61113;BME280;47184;57.998;56.184;2023-04-26T01:59:04;100295.94;;;13.82;38.91
61113;BME280;47184;57.998;56.184;2023-04-26T02:01:30;100302.75;;;13.84;38.51
61113;BME280;47184;57.998;56.184;2023-04-26T02:03:57;100297.47;;;13.76;38.72
61113;BME280;47184;57.998;56.184;2023-04-26T02:06:23;100305.50;;;13.91;38.41
61113;BME280;47184;57.998;56.184;2023-04-26T02:08:51;100316.69;;;13.78;38.72
61113;BME280;47184;57.998;56.184;2023-04-26T02:11:17;100309.94;;;13.76;39.06
61113;BME280;47184;57.998;56.184;2023-04-26T02:13:44;100300.72;;;13.86;38.48
61113;BME280;47184;57.998;56.184;2023-04-26T02:16:10;100294.31;;;14.04;38.31
61113;BME280;47184;57.998;56.184;2023-04-26T02:18:37;100271.00;;;14.14;37.97
61113;BME280;47184;57.998;56.184;2023-04-26T02:21:07;100289.66;;;14.52;37.56
61113;BME280;47184;57.998;56.184;2023-04-26T02:23:34;100265.22;;;14.56;37.67
61113;BME280;47184;57.998;56.184;2023-04-26T02:26:00;100268.28;;;14.83;37.17
61113;BME280;47184;57.998;56.184;2023-04-26T02:28:26;100281.88;;;15.03;36.76
61113;BME280;47184;57.998;56.184;2023-04-26T02:30:55;100290.69;;;15.18;36.82
61113;BME280;47184;57.998;56.184;2023-04-26T02:33:22;100283.16;;;15.22;36.74
61113;BME280;47184;57.998;56.184;2023-04-26T02:35:48;100275.00;;;15.23;36.55
61113;BME280;47184;57.998;56.184;2023-04-26T02:38:15;100275.91;;;15.30;36.33
61113;BME280;47184;57.998;56.184;2023-04-26T02:40:41;100264.91;;;15.33;36.09
61113;BME280;47184;57.998;56.184;2023-04-26T02:43:10;100256.44;;;15.45;36.50
61113;BME280;47184;57.998;56.184;2023-04-26T02:45:41;100251.09;;;15.59;36.06
61113;BME280;47184;57.998;56.184;2023-04-26T02:48:13;100257.31;;;15.81;36.26
61113;BME280;47184;57.998;56.184;2023-04-26T02:50:39;100234.94;;;15.76;35.78
61113;BME280;47184;57.998;56.184;2023-04-26T02:53:05;100237.72;;;15.68;35.97
61113;BME280;47184;57.998;56.184;2023-04-26T02:55:31;100245.75;;;15.74;35.93
61113;BME280;47184;57.998;56.184;2023-04-26T02:57:58;100229.78;;;15.74;35.77
61113;BME280;47184;57.998;56.184;2023-04-26T03:00:24;100230.31;;;15.84;35.46
61113;BME280;47184;57.998;56.184;2023-04-26T03:02:51;100249.53;;;16.01;35.49
61113;BME280;47184;57.998;56.184;2023-04-26T03:05:17;100230.69;;;16.03;35.20
61113;BME280;47184;57.998;56.184;2023-04-26T03:07:45;100242.59;;;16.28;34.89
61113;BME280;47184;57.998;56.184;2023-04-26T03:10:11;100237.84;;;16.45;34.83
61113;BME280;47184;57.998;56.184;2023-04-26T03:12:39;100238.22;;;16.70;34.73
61113;BME280;47184;57.998;56.184;2023-04-26T03:15:05;100232.63;;;16.93;34.22
61113;BME280;47184;57.998;56.184;2023-04-26T03:17:32;100227.34;;;17.00;34.05
61113;BME280;47184;57.998;56.184;2023-04-26T03:19:58;100230.91;;;17.14;33.85
61113;BME280;47184;57.998;56.184;2023-04-26T03:22:24;100227.72;;;17.31;33.81
61113;BME280;47184;57.998;56.184;2023-04-26T03:24:51;100217.25;;;17.37;33.65
61113;BME280;47184;57.998;56.184;2023-04-26T03:27:17;100218.75;;;17.52;33.38
61113;BME280;47184;57.998;56.184;2023-04-26T03:29:43;100217.13;;;17.71;33.28
61113;BME280;47184;57.998;56.184;2023-04-26T03:32:10;100219.47;;;17.88;32.92
61113;BME280;47184;57.998;56.184;2023-04-26T03:34:36;100216.00;;;17.94;32.88
61113;BME280;47184;57.998;56.184;2023-04-26T03:37:02;100186.81;;;17.86;32.74
61113;BME280;47184;57.998;56.184;2023-04-26T03:39:29;100192.75;;;17.81;32.58
61113;BME280;47184;57.998;56.184;2023-04-26T03:41:55;100205.50;;;17.99;32.54
61113;BME280;47184;57.998;56.184;2023-04-26T03:44:22;100193.97;;;17.92;32.62
61113;BME280;47184;57.998;56.184;2023-04-26T03:46:48;100181.66;;;17.77;32.54
61113;BME280;47184;57.998;56.184;2023-04-26T03:49:17;100208.38;;;17.77;32.52
61113;BME280;47184;57.998;56.184;2023-04-26T03:51:43;100202.16;;;17.70;32.73
61113;BME280;47184;57.998;56.184;2023-04-26T03:54:10;100204.22;;;17.75;32.67
61113;BME280;47184;57.998;56.184;2023-04-26T03:56:36;100170.47;;;17.54;32.77
61113;BME280;47184;57.998;56.184;2023-04-26T03:59:02;100191.47;;;17.64;32.83
61113;BME280;47184;57.998;56.184;2023-04-26T04:01:28;100191.28;;;17.72;32.80
61113;BME280;47184;57.998;56.184;2023-04-26T04:03:54;100176.69;;;17.68;32.62
61113;BME280;47184;57.998;56.184;2023-04-26T04:06:21;100188.03;;;17.83;32.70
61113;BME280;47184;57.998;56.184;2023-04-26T04:08:47;100189.88;;;17.96;32.58
61113;BME280;47184;57.998;56.184;2023-04-26T04:11:13;100176.53;;;18.16;32.28
61113;BME280;47184;57.998;56.184;2023-04-26T04:13:40;100159.06;;;18.26;32.19
61113;BME280;47184;57.998;56.184;2023-04-26T04:16:06;100179.59;;;18.39;32.07
61113;BME280;47184;57.998;56.184;2023-04-26T04:18:35;100170.78;;;18.45;31.81
61113;BME280;47184;57.998;56.184;2023-04-26T04:21:02;100168.91;;;18.46;31.89
61113;BME280;47184;57.998;56.184;2023-04-26T04:23:28;100160.06;;;18.39;31.96
61113;BME280;47184;57.998;56.184;2023-04-26T04:25:54;100167.25;;;18.51;31.80
61113;BME280;47184;57.998;56.184;2023-04-26T04:28:21;100164.94;;;18.68;31.78
61113;BME280;47184;57.998;56.184;2023-04-26T04:30:48;100159.00;;;18.73;31.60
61113;BME280;47184;57.998;56.184;2023-04-26T04:33:14;100150.97;;;18.79;31.39
61113;BME280;47184;57.998;56.184;2023-04-26T04:35:42;100141.09;;;18.60;31.42
61113;BME280;47184;57.998;56.184;2023-04-26T04:38:09;100161.69;;;18.53;31.59
61113;BME280;47184;57.998;56.184;2023-04-26T04:40:36;100153.28;;;18.49;31.54
61113;BME280;47184;57.998;56.184;2023-04-26T04:43:02;100154.47;;;18.60;31.54
61113;BME280;47184;57.998;56.184;2023-04-26T04:45:30;100151.19;;;18.71;31.21
61113;BME280;47184;57.998;56.184;2023-04-26T04:47:57;100131.63;;;18.64;31.14
61113;BME280;47184;57.998;56.184;2023-04-26T04:50:25;100133.69;;;18.75;31.04
61113;BME280;47184;57.998;56.184;2023-04-26T04:52:53;100138.34;;;18.93;30.81
61113;BME280;47184;57.998;56.184;2023-04-26T04:55:19;100135.50;;;19.26;30.50
61113;BME280;47184;57.998;56.184;2023-04-26T04:57:45;100117.44;;;19.53;29.97
61113;BME280;47184;57.998;56.184;2023-04-26T05:00:12;100118.81;;;19.69;30.11
61113;BME280;47184;57.998;56.184;2023-04-26T05:03:05;100128.88;;;19.74;29.78
61113;BME280;47184;57.998;56.184;2023-04-26T05:05:33;100102.72;;;19.69;29.67
61113;BME280;47184;57.998;56.184;2023-04-26T05:07:59;100117.44;;;19.85;29.81
61113;BME280;47184;57.998;56.184;2023-04-26T05:10:26;100110.13;;;19.99;29.75
61113;BME280;47184;57.998;56.184;2023-04-26T05:12:52;100107.88;;;20.21;29.42
61113;BME280;47184;57.998;56.184;2023-04-26T05:15:19;100096.38;;;20.14;29.43
61113;BME280;47184;57.998;56.184;2023-04-26T05:17:45;100114.75;;;20.10;29.49
61113;BME280;47184;57.998;56.184;2023-04-26T05:20:16;100115.16;;;19.89;29.59
61113;BME280;47184;57.998;56.184;2023-04-26T05:22:42;100121.09;;;19.91;29.51
61113;BME280;47184;57.998;56.184;2023-04-26T05:25:08;100109.25;;;19.80;29.53
61113;BME280;47184;57.998;56.184;2023-04-26T05:27:36;100109.38;;;19.60;30.00
61113;BME280;47184;57.998;56.184;2023-04-26T05:30:21;100104.19;;;19.34;30.02
61113;BME280;47184;57.998;56.184;2023-04-26T05:33:14;100105.69;;;19.54;30.12
61113;BME280;47184;57.998;56.184;2023-04-26T05:36:04;100106.47;;;19.68;30.08
61113;BME280;47184;57.998;56.184;2023-04-26T05:38:30;100091.97;;;19.76;29.93
61113;BME280;47184;57.998;56.184;2023-04-26T05:40:57;100065.53;;;19.79;29.70
61113;BME280;47184;57.998;56.184;2023-04-26T05:43:23;100091.34;;;19.99;29.75
61113;BME280;47184;57.998;56.184;2023-04-26T05:45:53;100058.06;;;19.88;29.72
61113;BME280;47184;57.998;56.184;2023-04-26T05:48:20;100081.63;;;20.04;29.78
61113;BME280;47184;57.998;56.184;2023-04-26T05:50:50;100081.97;;;19.90;29.71
61113;BME280;47184;57.998;56.184;2023-04-26T05:53:18;100072.38;;;19.75;29.77
61113;BME280;47184;57.998;56.184;2023-04-26T05:55:44;100087.75;;;19.87;29.80
61113;BME280;47184;57.998;56.184;2023-04-26T05:58:11;100081.69;;;19.73;29.91
61113;BME280;47184;57.998;56.184;2023-04-26T06:00:38;100082.06;;;19.76;29.93
61113;BME280;47184;57.998;56.184;2023-04-26T06:03:06;100076.75;;;19.70;30.08
61113;BME280;47184;57.998;56.184;2023-04-26T06:05:32;100080.53;;;19.62;30.27
61113;BME280;47184;57.998;56.184;2023-04-26T06:07:58;100089.41;;;19.56;30.42
61113;BME280;47184;57.998;56.184;2023-04-26T06:10:26;100081.38;;;19.56;30.24
61113;BME280;47184;57.998;56.184;2023-04-26T06:12:52;100079.66;;;19.37;30.56
61113;BME280;47184;57.998;56.184;2023-04-26T06:15:20;100089.28;;;19.44;30.45
61113;BME280;47184;57.998;56.184;2023-04-26T06:17:46;100088.09;;;19.34;30.72
61113;BME280;47184;57.998;56.184;2023-04-26T06:20:12;100087.31;;;19.26;30.83
61113;BME280;47184;57.998;56.184;2023-04-26T06:22:38;100100.38;;;19.16;30.91
61113;BME280;47184;57.998;56.184;2023-04-26T06:25:06;100106.38;;;19.05;31.43
61113;BME280;47184;57.998;56.184;2023-04-26T06:27:34;100109.59;;;18.82;31.73
61113;BME280;47184;57.998;56.184;2023-04-26T06:30:01;100086.75;;;18.79;31.73
61113;BME280;47184;57.998;56.184;2023-04-26T06:32:31;100086.41;;;19.08;31.33
61113;BME280;47184;57.998;56.184;2023-04-26T06:34:58;100095.19;;;19.21;31.19
61113;BME280;47184;57.998;56.184;2023-04-26T06:37:24;100085.22;;;19.35;30.93
61113;BME280;47184;57.998;56.184;2023-04-26T06:39:50;100074.47;;;19.42;30.97
61113;BME280;47184;57.998;56.184;2023-04-26T06:42:17;100075.97;;;19.63;30.67
61113;BME280;47184;57.998;56.184;2023-04-26T06:45:06;100060.72;;;19.63;30.57
61113;BME280;47184;57.998;56.184;2023-04-26T06:47:34;100078.72;;;19.81;30.24
61113;BME280;47184;57.998;56.184;2023-04-26T06:50:00;100068.28;;;19.73;30.26
61113;BME280;47184;57.998;56.184;2023-04-26T06:52:26;100079.06;;;19.66;30.42
61113;BME280;47184;57.998;56.184;2023-04-26T06:54:54;100066.94;;;19.25;30.30
61113;BME280;47184;57.998;56.184;2023-04-26T06:57:21;100037.75;;;19.17;30.40
61113;BME280;47184;57.998;56.184;2023-04-26T06:59:47;100068.84;;;19.50;30.08
61113;BME280;47184;57.998;56.184;2023-04-26T07:02:13;100055.16;;;19.65;29.98
61113;BME280;47184;57.998;56.184;2023-04-26T07:04:39;100050.06;;;19.82;29.69
61113;BME280;47184;57.998;56.184;2023-04-26T07:07:06;100054.88;;;19.98;29.74
61113;BME280;47184;57.998;56.184;2023-04-26T07:09:32;100053.00;;;19.98;29.57
61113;BME280;47184;57.998;56.184;2023-04-26T07:11:58;100107.22;;;20.00;29.39
61113;BME280;47184;57.998;56.184;2023-04-26T07:14:24;100127.34;;;19.53;30.14
61113;BME280;47184;57.998;56.184;2023-04-26T07:16:51;100144.91;;;19.42;30.28
61113;BME280;47184;57.998;56.184;2023-04-26T07:19:17;100151.09;;;18.98;30.76
61113;BME280;47184;57.998;56.184;2023-04-26T07:21:43;100116.63;;;18.63;31.11
61113;BME280;47184;57.998;56.184;2023-04-26T07:24:10;100091.50;;;18.64;30.91
61113;BME280;47184;57.998;56.184;2023-04-26T07:26:40;100128.75;;;18.72;31.14
61113;BME280;47184;57.998;56.184;2023-04-26T07:29:06;100130.09;;;19.01;30.90
61113;BME280;47184;57.998;56.184;2023-04-26T07:31:33;100125.69;;;19.20;30.76
61113;BME280;47184;57.998;56.184;2023-04-26T07:33:59;100123.81;;;19.21;30.76
61113;BME280;47184;57.998;56.184;2023-04-26T07:36:25;100125.06;;;19.18;31.00
61113;BME280;47184;57.998;56.184;2023-04-26T07:38:52;100132.75;;;19.08;31.09
61113;BME280;47184;57.998;56.184;2023-04-26T07:41:18;100116.16;;;18.86;31.33
61113;BME280;47184;57.998;56.184;2023-04-26T07:43:44;100119.41;;;18.95;31.18
61113;BME280;47184;57.998;56.184;2023-04-26T07:46:10;100114.34;;;18.73;31.49
61113;BME280;47184;57.998;56.184;2023-04-26T07:48:36;100122.19;;;18.55;31.72
61113;BME280;47184;57.998;56.184;2023-04-26T07:51:12;100100.69;;;17.83;32.71
61113;BME280;47184;57.998;56.184;2023-04-26T07:53:39;100139.13;;;17.96;32.96
61113;BME280;47184;57.998;56.184;2023-04-26T07:56:07;100117.34;;;17.86;32.99
61113;BME280;47184;57.998;56.184;2023-04-26T07:58:34;100134.34;;;17.58;34.99
61113;BME280;47184;57.998;56.184;2023-04-26T08:01:01;100127.00;;;16.64;36.92
61113;BME280;47184;57.998;56.184;2023-04-26T08:03:29;100174.97;;;16.29;38.13
61113;BME280;47184;57.998;56.184;2023-04-26T08:05:55;100172.19;;;16.16;39.56
61113;BME280;47184;57.998;56.184;2023-04-26T08:08:22;100162.94;;;15.48;42.40
61113;BME280;47184;57.998;56.184;2023-04-26T08:10:48;100154.91;;;14.90;46.56
61113;BME280;47184;57.998;56.184;2023-04-26T08:13:14;100146.47;;;14.19;50.93
61113;BME280;47184;57.998;56.184;2023-04-26T08:15:40;100157.28;;;13.80;52.98
61113;BME280;47184;57.998;56.184;2023-04-26T08:18:06;100142.94;;;13.43;54.70
61113;BME280;47184;57.998;56.184;2023-04-26T08:20:32;100113.91;;;13.19;54.97
61113;BME280;47184;57.998;56.184;2023-04-26T08:22:59;100116.09;;;13.38;55.43
61113;BME280;47184;57.998;56.184;2023-04-26T08:25:25;100104.63;;;13.46;55.74
61113;BME280;47184;57.998;56.184;2023-04-26T08:27:51;100072.78;;;13.46;55.35
61113;BME280;47184;57.998;56.184;2023-04-26T08:30:18;100072.13;;;13.67;55.50
61113;BME280;47184;57.998;56.184;2023-04-26T08:32:44;100075.53;;;13.75;54.59
61113;BME280;47184;57.998;56.184;2023-04-26T08:35:11;100057.88;;;13.82;54.52
61113;BME280;47184;57.998;56.184;2023-04-26T08:37:38;100057.28;;;14.10;53.77
61113;BME280;47184;57.998;56.184;2023-04-26T08:40:05;100043.56;;;14.51;52.82
61113;BME280;47184;57.998;56.184;2023-04-26T08:42:41;100031.00;;;15.17;51.19
61113;BME280;47184;57.998;56.184;2023-04-26T08:45:09;100040.84;;;15.88;50.23
61113;BME280;47184;57.998;56.184;2023-04-26T08:50:07;100034.06;;;17.09;47.78
61113;BME280;47184;57.998;56.184;2023-04-26T08:52:36;100035.75;;;17.43;47.25
61113;BME280;47184;57.998;56.184;2023-04-26T08:55:04;100000.22;;;17.49;47.00
61113;BME280;47184;57.998;56.184;2023-04-26T08:57:31;100018.09;;;17.69;46.69
61113;BME280;47184;57.998;56.184;2023-04-26T08:59:58;100023.84;;;17.79;46.18
61113;BME280;47184;57.998;56.184;2023-04-26T09:02:26;99998.97;;;17.98;45.95
61113;BME280;47184;57.998;56.184;2023-04-26T09:04:52;99995.38;;;18.24;45.48
61113;BME280;47184;57.998;56.184;2023-04-26T09:07:40;99994.78;;;18.22;45.06
61113;BME280;47184;57.998;56.184;2023-04-26T09:10:08;99973.97;;;18.31;44.87
61113;BME280;47184;57.998;56.184;2023-04-26T09:12:34;99959.31;;;18.40;44.47
61113;BME280;47184;57.998;56.184;2023-04-26T09:15:02;99961.81;;;18.35;44.44
61113;BME280;47184;57.998;56.184;2023-04-26T09:17:32;99931.28;;;18.18;44.42
61113;BME280;47184;57.998;56.184;2023-04-26T09:20:00;99975.13;;;18.48;44.27
61113;BME280;47184;57.998;56.184;2023-04-26T09:22:31;99966.47;;;18.53;44.17
61113;BME280;47184;57.998;56.184;2023-04-26T09:24:57;99939.00;;;18.32;43.99
61113;BME280;47184;57.998;56.184;2023-04-26T09:27:40;99944.94;;;18.41;44.09
61113;BME280;47184;57.998;56.184;2023-04-26T09:30:17;99925.69;;;18.19;43.97
61113;BME280;47184;57.998;56.184;2023-04-26T09:32:58;99934.59;;;18.06;43.79
61113;BME280;47184;57.998;56.184;2023-04-26T09:35:33;99922.28;;;17.99;44.08
61113;BME280;47184;57.998;56.184;2023-04-26T09:38:05;99919.44;;;17.94;43.64
61113;BME280;47184;57.998;56.184;2023-04-26T09:40:34;99915.31;;;17.91;43.83
61113;BME280;47184;57.998;56.184;2023-04-26T09:43:03;99911.19;;;18.02;43.24
61113;BME280;47184;57.998;56.184;2023-04-26T09:45:31;99892.72;;;17.94;42.84
61113;BME280;47184;57.998;56.184;2023-04-26T09:50:52;99890.09;;;17.80;42.76
61113;BME280;47184;57.998;56.184;2023-04-26T09:56:10;99872.63;;;17.78;42.57
61113;BME280;47184;57.998;56.184;2023-04-26T09:58:53;99847.16;;;17.82;42.24
61113;BME280;47184;57.998;56.184;2023-04-26T10:01:24;99857.81;;;17.82;42.21
61113;BME280;47184;57.998;56.184;2023-04-26T10:03:51;99865.03;;;17.81;42.29
61113;BME280;47184;57.998;56.184;2023-04-26T10:06:17;99847.59;;;17.66;42.18
61113;BME280;47184;57.998;56.184;2023-04-26T10:08:43;99856.44;;;17.60;42.37
61113;BME280;47184;57.998;56.184;2023-04-26T10:11:10;99840.22;;;17.61;42.24
61113;BME280;47184;57.998;56.184;2023-04-26T10:13:41;99835.66;;;17.75;41.95
61113;BME280;47184;57.998;56.184;2023-04-26T10:16:08;99831.75;;;17.84;41.86
61113;BME280;47184;57.998;56.184;2023-04-26T10:18:37;99824.16;;;17.74;41.81
61113;BME280;47184;57.998;56.184;2023-04-26T10:23:36;99830.94;;;17.77;41.64
61113;BME280;47184;57.998;56.184;2023-04-26T10:26:02;99815.50;;;17.79;41.48
61113;BME280;47184;57.998;56.184;2023-04-26T10:31:10;99809.66;;;18.02;41.04
61113;BME280;47184;57.998;56.184;2023-04-26T10:33:37;99790.06;;;17.76;41.10
61113;BME280;47184;57.998;56.184;2023-04-26T10:38:37;99783.91;;;17.69;41.46
61113;BME280;47184;57.998;56.184;2023-04-26T10:41:33;99780.38;;;17.82;41.25
61113;BME280;47184;57.998;56.184;2023-04-26T10:47:29;99776.66;;;17.83;40.93
61113;BME280;47184;57.998;56.184;2023-04-26T10:50:07;99766.84;;;17.70;41.25
61113;BME280;47184;57.998;56.184;2023-04-26T10:52:35;99768.88;;;17.75;40.89
61113;BME280;47184;57.998;56.184;2023-04-26T10:55:02;99750.00;;;17.76;40.91
61113;BME280;47184;57.998;56.184;2023-04-26T10:57:52;99766.34;;;17.93;40.66
61113;BME280;47184;57.998;56.184;2023-04-26T11:00:25;99742.69;;;17.97;40.20
61113;BME280;47184;57.998;56.184;2023-04-26T11:02:56;99756.38;;;18.07;40.24
61113;BME280;47184;57.998;56.184;2023-04-26T11:08:38;99739.16;;;18.03;39.74
61113;BME280;47184;57.998;56.184;2023-04-26T11:11:11;99744.50;;;18.28;39.41
61113;BME280;47184;57.998;56.184;2023-04-26T11:13:42;99758.78;;;18.47;39.40
61113;BME280;47184;57.998;56.184;2023-04-26T11:16:13;99746.06;;;18.67;39.34
61113;BME280;47184;57.998;56.184;2023-04-26T11:18:45;99744.38;;;18.73;38.79
61113;BME280;47184;57.998;56.184;2023-04-26T11:21:12;99750.53;;;18.73;38.72
61113;BME280;47184;57.998;56.184;2023-04-26T11:23:52;99739.78;;;18.80;38.38
61113;BME280;47184;57.998;56.184;2023-04-26T11:26:18;99737.06;;;19.05;38.36
61113;BME280;47184;57.998;56.184;2023-04-26T11:28:44;99716.53;;;19.17;38.11
61113;BME280;47184;57.998;56.184;2023-04-26T11:31:11;99721.38;;;19.09;38.10
61113;BME280;47184;57.998;56.184;2023-04-26T11:33:40;99724.72;;;19.22;37.78
61113;BME280;47184;57.998;56.184;2023-04-26T11:36:06;99722.19;;;19.27;37.96
61113;BME280;47184;57.998;56.184;2023-04-26T11:38:33;99702.41;;;19.10;37.98
61113;BME280;47184;57.998;56.184;2023-04-26T11:41:00;99705.09;;;19.10;37.89
61113;BME280;47184;57.998;56.184;2023-04-26T11:43:34;99719.06;;;19.30;37.67
61113;BME280;47184;57.998;56.184;2023-04-26T11:46:02;99721.78;;;19.42;37.72
61113;BME280;47184;57.998;56.184;2023-04-26T11:48:29;99712.69;;;19.32;37.42
61113;BME280;47184;57.998;56.184;2023-04-26T11:50:56;99705.53;;;19.44;37.27
61113;BME280;47184;57.998;56.184;2023-04-26T11:53:46;99706.56;;;19.61;37.07
61113;BME280;47184;57.998;56.184;2023-04-26T11:56:13;99702.06;;;19.55;36.57
61113;BME280;47184;57.998;56.184;2023-04-26T11:58:46;99708.50;;;19.36;36.87
61113;BME280;47184;57.998;56.184;2023-04-26T12:01:19;99680.69;;;19.18;36.88
61113;BME280;47184;57.998;56.184;2023-04-26T12:03:51;99691.06;;;19.15;36.91
61113;BME280;47184;57.998;56.184;2023-04-26T12:06:19;99679.38;;;19.27;36.77
61113;BME280;47184;57.998;56.184;2023-04-26T12:08:51;99659.13;;;19.32;36.71
61113;BME280;47184;57.998;56.184;2023-04-26T12:11:17;99618.31;;;19.18;36.60
61113;BME280;47184;57.998;56.184;2023-04-26T12:13:45;99639.41;;;19.26;36.48
61113;BME280;47184;57.998;56.184;2023-04-26T12:16:12;99635.25;;;19.30;36.42
61113;BME280;47184;57.998;56.184;2023-04-26T12:18:39;99652.22;;;19.24;36.37
61113;BME280;47184;57.998;56.184;2023-04-26T12:21:06;99624.34;;;19.13;36.28
61113;BME280;47184;57.998;56.184;2023-04-26T12:23:37;99633.53;;;19.36;36.24
61113;BME280;47184;57.998;56.184;2023-04-26T12:26:04;99581.91;;;19.17;35.74
61113;BME280;47184;57.998;56.184;2023-04-26T12:28:31;99619.03;;;19.43;35.87
61113;BME280;47184;57.998;56.184;2023-04-26T12:30:57;99607.81;;;19.65;35.58
61113;BME280;47184;57.998;56.184;2023-04-26T12:33:24;99606.66;;;19.72;35.36
61113;BME280;47184;57.998;56.184;2023-04-26T12:35:50;99611.19;;;19.84;35.35
61113;BME280;47184;57.998;56.184;2023-04-26T12:38:17;99587.56;;;19.69;35.10
61113;BME280;47184;57.998;56.184;2023-04-26T12:40:44;99594.81;;;19.80;35.04
61113;BME280;47184;57.998;56.184;2023-04-26T12:43:11;99591.53;;;19.90;34.89
61113;BME280;47184;57.998;56.184;2023-04-26T12:45:37;99558.91;;;19.81;35.10
61113;BME280;47184;57.998;56.184;2023-04-26T12:48:04;99581.75;;;19.72;35.21
61113;BME280;47184;57.998;56.184;2023-04-26T12:50:30;99565.31;;;19.80;34.87
61113;BME280;47184;57.998;56.184;2023-04-26T12:52:56;99578.22;;;19.71;35.07
61113;BME280;47184;57.998;56.184;2023-04-26T12:55:22;99565.22;;;19.45;35.17
61113;BME280;47184;57.998;56.184;2023-04-26T12:57:48;99558.72;;;19.52;35.22
61113;BME280;47184;57.998;56.184;2023-04-26T13:00:16;99533.19;;;19.38;35.02
61113;BME280;47184;57.998;56.184;2023-04-26T13:02:43;99550.09;;;19.50;34.96
61113;BME280;47184;57.998;56.184;2023-04-26T13:05:10;99544.81;;;19.32;35.22
61113;BME280;47184;57.998;56.184;2023-04-26T13:07:38;99550.53;;;19.36;34.98
61113;BME280;47184;57.998;56.184;2023-04-26T13:10:06;99543.31;;;19.36;35.01